This is the latest recevied weather packets stored in our database for station/object DB0GIS-11. If no packets are shown the sender has not sent any weather packets the latest 10 day(s).
| Time | Temp. | Humidity | Pressure | Rain* | Wind** | Luminosity | Snow |
|---|---|---|---|---|---|---|---|
| 1777626468 | 16.67° C | 42% | 1025.5 hPa | 0 mm | - | - | - |
| 1777625851 | 16.67° C | 42% | 1025.4 hPa | 0 mm | - | - | - |
| 1777624056 | 16.11° C | 44% | 1025.5 hPa | 0 mm | - | - | - |
| 1777623479 | 15.56° C | 44% | 1025.7 hPa | 0 mm | - | - | - |
| 1777622253 | 15.56° C | 45% | 1025.5 hPa | 0 mm | - | - | - |
| 1777618070 | 13.33° C | 52% | 1025.4 hPa | 0 mm | - | - | - |
| 1777616271 | 12.22° C | 57% | 1025.7 hPa | 0 mm | - | - | - |
| 1777615658 | 11.67° C | 57% | 1025.6 hPa | 0 mm | - | - | - |
| 1777613845 | 9.44° C | 62% | 1025.2 hPa | 0 mm | - | - | - |
| 1777613281 | 8.89° C | 63% | 1025.2 hPa | 0 mm | - | - | - |
| 1777609651 | 6.67° C | 61% | 1024.9 hPa | 0 mm | - | - | - |
| 1777609050 | 6.67° C | 62% | 1024.8 hPa | 0 mm | - | - | - |
| 1777608511 | 6.67° C | 62% | 1024.7 hPa | 0 mm | - | - | - |
| 1777606664 | 6.11° C | 62% | 1024.7 hPa | 0 mm | - | - | - |
| 1777605459 | 6.67° C | 62% | 1024.8 hPa | 0 mm | - | - | - |
| 1777604262 | 6.67° C | 61% | 1024.8 hPa | 0 mm | - | - | - |
| 1777603049 | 7.22° C | 60% | 1024.7 hPa | 0 mm | - | - | - |
| 1777601287 | 7.22° C | 60% | 1024.6 hPa | 0 mm | - | - | - |
| 1777598868 | 7.78° C | 58% | 1024.7 hPa | 0 mm | - | - | - |
| 1777597694 | 8.33° C | 58% | 1024.8 hPa | 0 mm | - | - | - |
| 1777594656 | 8.89° C | 55% | 1024.7 hPa | 0 mm | - | - | - |
| 1777594095 | 9.44° C | 55% | 1024.7 hPa | 0 mm | - | - | - |
| 1777592853 | 9.44° C | 54% | 1024.9 hPa | 0 mm | - | - | - |
| 1777592253 | 9.44° C | 54% | 1024.7 hPa | 0 mm | - | - | - |
| 1777590457 | 10° C | 53% | 1024.8 hPa | 0 mm | - | - | - |
* Rain latest hour (hover to see other rain measurements)
** Current wind speed in m/s (hover to see current wind gust speed)